createdAt,value
2024-03-16T00:01:02.054Z,22.95
2024-03-16T00:03:30.010Z,22.98
2024-03-16T00:05:57.682Z,22.97
2024-03-16T00:08:24.966Z,22.95
2024-03-16T00:10:52.056Z,22.96
2024-03-16T00:13:18.773Z,22.96
2024-03-16T00:15:51.023Z,22.95
2024-03-16T00:18:18.048Z,22.95
2024-03-16T00:20:45.084Z,22.96
2024-03-16T00:23:11.759Z,22.93
2024-03-16T00:25:38.639Z,22.93
2024-03-16T00:28:05.942Z,22.92
2024-03-16T00:30:32.835Z,22.80
2024-03-16T00:32:59.729Z,22.93
2024-03-16T00:35:27.551Z,22.92
2024-03-16T00:37:55.408Z,22.90
2024-03-16T00:40:22.178Z,22.91
2024-03-16T00:42:49.022Z,22.89
2024-03-16T00:45:15.643Z,22.89
2024-03-16T00:47:42.389Z,22.88
2024-03-16T00:50:09.306Z,22.88
2024-03-16T00:52:54.587Z,22.87
2024-03-16T00:55:21.227Z,22.88
2024-03-16T00:57:47.902Z,22.84
2024-03-16T01:00:15.886Z,22.86
2024-03-16T01:02:43.195Z,22.84
2024-03-16T01:05:10.273Z,22.85
2024-03-16T01:07:37.181Z,22.84
2024-03-16T01:10:04.672Z,22.84
2024-03-16T01:12:31.367Z,22.83
2024-03-16T01:14:58.588Z,22.83
2024-03-16T01:17:25.571Z,22.83
2024-03-16T01:19:52.258Z,22.80
2024-03-16T01:22:19.061Z,22.81
2024-03-16T01:24:45.845Z,22.80
2024-03-16T01:27:12.481Z,22.81
2024-03-16T01:29:39.307Z,22.79
2024-03-16T01:32:09.603Z,22.78
2024-03-16T01:34:36.813Z,22.77
2024-03-16T01:37:03.737Z,22.79
2024-03-16T01:39:30.908Z,22.78
2024-03-16T01:41:57.833Z,22.77
2024-03-16T01:44:24.675Z,22.77
2024-03-16T01:46:51.483Z,22.75
2024-03-16T01:49:18.140Z,22.75
2024-03-16T01:51:44.809Z,22.74
2024-03-16T01:54:11.837Z,22.73
2024-03-16T01:56:38.654Z,22.73
2024-03-16T01:59:05.377Z,22.73
2024-03-16T02:01:32.728Z,22.73
2024-03-16T02:03:59.756Z,22.68
2024-03-16T02:06:28.383Z,22.71
2024-03-16T02:08:55.405Z,22.70
2024-03-16T02:11:23.136Z,22.69
2024-03-16T02:13:50.365Z,22.68
2024-03-16T02:16:17.162Z,22.67
2024-03-16T02:18:44.193Z,22.68
2024-03-16T02:21:11.699Z,22.66
2024-03-16T02:23:40.888Z,22.66
2024-03-16T02:26:08.749Z,22.65
2024-03-16T02:28:35.693Z,22.64
2024-03-16T02:31:02.711Z,22.65
2024-03-16T02:33:29.893Z,22.64
2024-03-16T02:35:56.837Z,22.64
2024-03-16T02:38:24.014Z,22.62
2024-03-16T02:40:50.784Z,22.62
2024-03-16T02:43:17.589Z,22.62
2024-03-16T02:45:44.375Z,22.63
2024-03-16T02:48:12.481Z,22.60
2024-03-16T02:50:39.283Z,22.60
2024-03-16T02:53:05.905Z,22.60
2024-03-16T02:55:32.485Z,22.59
2024-03-16T02:57:59.982Z,22.59
2024-03-16T03:00:28.208Z,22.59
2024-03-16T03:02:54.973Z,22.59
2024-03-16T03:05:23.738Z,22.59
2024-03-16T03:07:50.692Z,22.57
2024-03-16T03:10:18.020Z,22.58
2024-03-16T03:12:46.194Z,22.58
2024-03-16T03:15:13.040Z,22.56
2024-03-16T03:17:40.572Z,22.56
2024-03-16T03:20:10.328Z,22.55
2024-03-16T03:22:37.468Z,22.54
2024-03-16T03:25:04.986Z,22.54
2024-03-16T03:27:32.076Z,22.54
2024-03-16T03:29:58.793Z,22.51
2024-03-16T03:32:25.640Z,22.52
2024-03-16T03:34:52.358Z,22.51
2024-03-16T03:37:19.118Z,22.52
2024-03-16T03:39:47.689Z,22.51
2024-03-16T03:42:15.864Z,22.50
2024-03-16T03:44:51.306Z,22.51
2024-03-16T03:47:18.348Z,22.49
2024-03-16T03:49:51.850Z,22.49
2024-03-16T03:52:19.074Z,22.48
2024-03-16T03:54:46.076Z,22.49
2024-03-16T03:57:12.819Z,22.47
2024-03-16T03:59:39.501Z,22.48
2024-03-16T04:02:06.241Z,22.46
2024-03-16T04:04:32.884Z,22.45
2024-03-16T04:06:59.667Z,22.47
2024-03-16T04:09:26.458Z,22.45
2024-03-16T04:11:53.157Z,22.44
2024-03-16T04:14:20.656Z,22.44
2024-03-16T04:16:49.338Z,22.44
2024-03-16T04:19:17.380Z,22.42
2024-03-16T04:21:45.027Z,22.44
2024-03-16T04:24:11.823Z,22.42
2024-03-16T04:26:39.031Z,22.42
2024-03-16T04:29:07.079Z,22.41
2024-03-16T04:31:34.010Z,22.40
2024-03-16T04:34:00.839Z,22.41
2024-03-16T04:36:27.685Z,22.28
2024-03-16T04:38:54.315Z,22.40
2024-03-16T04:41:21.124Z,22.40
2024-03-16T04:43:48.519Z,22.40
2024-03-16T04:46:15.836Z,22.37
2024-03-16T04:48:42.608Z,22.39
2024-03-16T04:51:09.497Z,22.38
2024-03-16T04:53:36.177Z,22.37
2024-03-16T04:56:03.099Z,22.35
2024-03-16T04:58:29.967Z,22.36
2024-03-16T05:00:56.704Z,22.35
2024-03-16T05:03:23.493Z,22.35
2024-03-16T05:05:53.021Z,22.34
2024-03-16T05:08:19.608Z,22.33
2024-03-16T05:10:53.244Z,22.35
2024-03-16T05:13:20.014Z,22.33
2024-03-16T05:15:46.743Z,22.34
2024-03-16T05:18:15.534Z,22.33
2024-03-16T05:20:42.732Z,22.32
2024-03-16T05:23:09.605Z,22.31
2024-03-16T05:25:36.324Z,22.32
2024-03-16T05:28:03.233Z,22.32
2024-03-16T05:30:30.186Z,22.29
2024-03-16T05:32:57.207Z,22.30
2024-03-16T05:35:29.306Z,22.28
2024-03-16T05:37:56.513Z,22.32
2024-03-16T05:40:23.521Z,22.30
2024-03-16T05:42:50.329Z,22.29
2024-03-16T05:45:17.292Z,22.30
2024-03-16T05:47:44.793Z,22.29
2024-03-16T05:50:11.487Z,22.29
2024-03-16T05:52:38.987Z,22.29
2024-03-16T05:55:06.249Z,22.30
2024-03-16T05:57:33.025Z,22.29
2024-03-16T05:59:59.701Z,22.29
2024-03-16T06:02:27.978Z,22.27
2024-03-16T06:04:54.640Z,22.29
2024-03-16T06:07:21.776Z,22.26
2024-03-16T06:09:48.563Z,22.28
2024-03-16T06:12:15.317Z,22.29
2024-03-16T06:14:41.929Z,22.29
2024-03-16T06:17:08.629Z,22.27
2024-03-16T06:19:35.220Z,22.29
2024-03-16T06:22:03.769Z,22.28
2024-03-16T06:24:32.047Z,22.27
2024-03-16T06:27:06.109Z,22.28
2024-03-16T06:29:33.476Z,22.27
2024-03-16T06:32:10.024Z,22.28
2024-03-16T06:34:36.858Z,22.28
2024-03-16T06:37:04.486Z,22.28
2024-03-16T06:39:31.263Z,22.28
2024-03-16T06:41:58.227Z,22.28
2024-03-16T06:44:24.989Z,22.30
2024-03-16T06:46:51.699Z,22.30
2024-03-16T06:49:18.624Z,22.29
2024-03-16T06:51:45.401Z,22.29
2024-03-16T06:54:13.618Z,22.29
2024-03-16T06:56:40.731Z,22.30
2024-03-16T06:59:07.400Z,22.29
2024-03-16T07:01:34.099Z,22.28
2024-03-16T07:04:00.961Z,22.29
2024-03-16T07:06:27.543Z,22.29
2024-03-16T07:08:54.234Z,22.29
2024-03-16T07:11:21.177Z,22.30
2024-03-16T07:13:47.929Z,22.29
2024-03-16T07:16:16.233Z,22.29
2024-03-16T07:18:44.577Z,22.25
2024-03-16T07:21:11.652Z,22.30
2024-03-16T07:23:38.388Z,22.31
2024-03-16T07:26:06.888Z,22.30
2024-03-16T07:28:35.552Z,22.32
2024-03-16T07:31:04.048Z,22.34
2024-03-16T07:33:31.399Z,22.36
2024-03-16T07:35:59.462Z,22.37
2024-03-16T07:38:26.158Z,22.37
2024-03-16T07:40:53.339Z,22.39
2024-03-16T07:43:21.566Z,22.39
2024-03-16T07:45:51.602Z,22.41
2024-03-16T07:48:18.572Z,22.36
2024-03-16T07:50:45.189Z,22.42
2024-03-16T07:53:12.268Z,22.42
2024-03-16T07:55:39.583Z,22.43
2024-03-16T07:58:06.270Z,22.45
2024-03-16T08:00:33.040Z,22.45
2024-03-16T08:02:59.915Z,22.47
2024-03-16T08:05:26.534Z,22.46
2024-03-16T08:07:53.230Z,22.47
2024-03-16T08:10:20.030Z,22.47
2024-03-16T08:12:47.007Z,22.47
2024-03-16T08:15:14.273Z,22.31
2024-03-16T08:17:40.984Z,22.48
2024-03-16T08:20:09.465Z,22.49
2024-03-16T08:22:36.318Z,22.49
2024-03-16T08:25:03.232Z,22.51
2024-03-16T08:27:33.464Z,22.52
2024-03-16T08:30:02.318Z,22.55
2024-03-16T08:32:30.750Z,22.55
2024-03-16T08:34:58.068Z,22.56
2024-03-16T08:37:25.358Z,22.55
2024-03-16T08:39:52.216Z,22.57
2024-03-16T08:42:18.848Z,22.58
2024-03-16T08:44:45.565Z,22.59
2024-03-16T08:47:12.225Z,22.59
2024-03-16T08:49:38.828Z,22.61
2024-03-16T08:52:05.589Z,22.63
2024-03-16T08:54:33.826Z,22.64
2024-03-16T08:57:01.599Z,22.65
2024-03-16T08:59:29.081Z,22.66
2024-03-16T09:01:55.928Z,22.67
2024-03-16T09:04:22.824Z,22.68
2024-03-16T09:06:49.406Z,22.69
2024-03-16T09:09:17.553Z,22.72
2024-03-16T09:11:44.758Z,22.73
2024-03-16T09:14:11.662Z,22.76
2024-03-16T09:16:41.919Z,22.77
2024-03-16T09:19:09.153Z,22.79
2024-03-16T09:21:36.061Z,22.61
2024-03-16T09:24:02.781Z,22.85
2024-03-16T09:26:29.435Z,22.86
2024-03-16T09:28:56.426Z,22.85
2024-03-16T09:31:26.661Z,22.88
2024-03-16T09:33:53.703Z,22.89
2024-03-16T09:36:20.942Z,22.91
2024-03-16T09:38:48.801Z,22.91
2024-03-16T09:41:19.622Z,22.92
